createdAt,value
2022-08-12T00:00:18.501Z,100258.75
2022-08-12T00:06:00.485Z,100254.34
2022-08-12T00:11:20.698Z,100245.06
2022-08-12T00:16:40.873Z,100257.75
2022-08-12T00:22:01.760Z,100261.19
2022-08-12T00:27:25.118Z,100263.53
2022-08-12T00:32:54.783Z,100264.38
2022-08-12T00:38:21.136Z,100265.50
2022-08-12T00:43:24.673Z,100273.94
2022-08-12T00:48:26.728Z,100257.59
2022-08-12T00:53:29.618Z,100279.31
2022-08-12T00:58:32.457Z,100270.44
2022-08-12T01:03:56.127Z,100258.66
2022-08-12T01:09:19.866Z,100261.69
2022-08-12T01:14:25.998Z,100254.66
2022-08-12T01:19:27.777Z,100254.09
2022-08-12T01:24:31.170Z,100253.91
2022-08-12T01:29:36.495Z,100258.22
2022-08-12T01:34:41.360Z,100261.31
2022-08-12T01:40:34.587Z,100252.69
2022-08-12T01:45:10.433Z,100243.56
2022-08-12T01:50:33.403Z,100243.88
2022-08-12T01:55:38.366Z,100252.34
2022-08-12T02:00:54.835Z,100241.78
2022-08-12T02:06:25.030Z,100242.13
2022-08-12T02:11:30.476Z,100240.94
2022-08-12T02:17:13.275Z,100236.81
2022-08-12T02:22:17.669Z,100237.56
2022-08-12T02:27:21.664Z,100233.78
2022-08-12T02:32:23.465Z,100223.06
2022-08-12T02:37:28.339Z,100231.09
2022-08-12T02:42:34.113Z,100215.38
2022-08-12T02:48:00.934Z,100220.47
2022-08-12T02:53:04.479Z,100215.53
2022-08-12T02:58:12.387Z,100202.44
2022-08-12T03:03:19.429Z,100199.59
2022-08-12T03:08:32.690Z,100206.44
2022-08-12T03:13:40.294Z,100210.50
2022-08-12T03:18:46.049Z,100216.09
2022-08-12T03:23:49.195Z,100221.66
2022-08-12T03:28:51.902Z,100221.84
2022-08-12T03:34:01.241Z,100234.13
2022-08-12T03:39:16.001Z,100240.50
2022-08-12T03:44:45.970Z,100242.56
2022-08-12T03:50:06.783Z,100245.44
2022-08-12T03:55:27.109Z,100248.91
2022-08-12T04:00:30.897Z,100246.53
2022-08-12T04:05:54.687Z,100254.38
2022-08-12T04:11:13.904Z,100247.38
2022-08-12T04:16:17.328Z,100254.88
2022-08-12T04:21:19.462Z,100263.34
2022-08-12T04:26:21.466Z,100259.28
2022-08-12T04:31:34.423Z,100263.69
2022-08-12T04:36:40.558Z,100260.06
2022-08-12T04:41:57.513Z,100253.88
2022-08-12T04:47:00.534Z,100254.56
2022-08-12T04:52:03.316Z,100255.25
2022-08-12T04:57:06.105Z,100248.78
2022-08-12T05:02:09.545Z,100259.41
2022-08-12T05:07:18.614Z,100256.22
2022-08-12T05:12:20.353Z,100261.09
2022-08-12T05:17:22.023Z,100252.94
2022-08-12T05:22:28.917Z,100261.91
2022-08-12T05:27:30.579Z,100261.53
2022-08-12T05:32:32.830Z,100270.22
2022-08-12T05:37:35.137Z,100275.97
2022-08-12T05:42:36.879Z,100275.44
2022-08-12T05:47:53.311Z,100274.88
2022-08-12T05:52:55.540Z,100275.78
2022-08-12T05:57:57.692Z,100281.50
2022-08-12T06:03:03.191Z,100275.22
2022-08-12T06:08:07.129Z,100277.34
2022-08-12T06:13:09.340Z,100290.34
2022-08-12T06:18:16.295Z,100284.50
2022-08-12T06:23:18.184Z,100291.84
2022-08-12T06:28:21.268Z,100286.13
2022-08-12T06:33:24.999Z,100297.19
2022-08-12T06:38:46.284Z,100292.69
2022-08-12T06:44:06.721Z,100292.94
2022-08-12T06:49:13.370Z,100289.91
2022-08-12T06:54:15.160Z,100282.50
2022-08-12T06:59:35.651Z,100285.47
2022-08-12T07:04:39.215Z,100281.41
2022-08-12T07:10:06.762Z,100275.38
2022-08-12T07:15:07.647Z,100282.06
2022-08-12T07:20:29.790Z,100276.53
2022-08-12T07:25:37.922Z,100277.97
2022-08-12T07:30:45.776Z,100274.50
2022-08-12T07:35:48.619Z,100282.88
2022-08-12T07:40:53.713Z,100290.22
2022-08-12T07:45:55.781Z,100297.69
2022-08-12T07:50:57.438Z,100286.69
2022-08-12T07:55:59.218Z,100295.38
2022-08-12T08:01:02.375Z,100294.81
2022-08-12T08:06:19.928Z,100291.41
2022-08-12T08:11:42.263Z,100286.41
2022-08-12T08:16:43.992Z,100289.34
2022-08-12T08:21:46.553Z,100279.09
2022-08-12T08:26:50.484Z,100277.34
2022-08-12T08:31:58.900Z,100266.38
2022-08-12T08:37:00.580Z,100263.53
2022-08-12T08:42:25.118Z,100250.44
2022-08-12T08:47:26.790Z,100250.44
2022-08-12T08:52:39.094Z,100238.69
2022-08-12T08:57:51.130Z,100241.09
2022-08-12T09:02:59.044Z,100231.47
2022-08-12T09:08:14.345Z,100225.19
2022-08-12T09:14:10.746Z,100227.38
2022-08-12T09:18:53.731Z,100221.00
2022-08-12T09:24:06.047Z,100213.56
2022-08-12T09:29:12.054Z,100206.00
2022-08-12T09:34:27.532Z,100202.41
2022-08-12T09:40:02.175Z,100208.31
2022-08-12T09:46:06.219Z,100206.53
2022-08-12T09:50:58.673Z,100194.44
2022-08-12T09:56:41.182Z,100184.59
2022-08-12T10:01:25.705Z,100180.59
2022-08-12T10:06:53.909Z,100176.31
2022-08-12T10:12:15.945Z,100171.16
2022-08-12T10:17:32.967Z,100172.38
2022-08-12T10:22:39.566Z,100162.38
2022-08-12T10:28:03.467Z,100156.13
2022-08-12T10:33:18.165Z,100152.94
2022-08-12T10:38:39.345Z,100144.88
2022-08-12T10:43:54.864Z,100148.28
2022-08-12T10:49:05.564Z,100147.97
2022-08-12T10:54:19.787Z,100144.19
2022-08-12T11:00:31.445Z,100134.50
2022-08-12T11:04:59.035Z,100132.59
2022-08-12T11:10:20.246Z,100133.25
2022-08-12T11:16:03.023Z,100127.91
2022-08-12T11:20:52.188Z,100112.38
2022-08-12T11:25:58.080Z,100106.66
2022-08-12T11:31:00.804Z,100119.50
2022-08-12T11:36:16.729Z,100110.53
2022-08-12T11:41:27.985Z,100103.16
2022-08-12T11:46:37.454Z,100100.44
2022-08-12T11:51:39.935Z,100099.31
2022-08-12T11:56:42.907Z,100090.50
2022-08-12T12:02:03.067Z,100089.97
2022-08-12T12:07:11.181Z,100078.84
2022-08-12T12:12:13.233Z,100068.06
2022-08-12T12:17:14.890Z,100070.31
2022-08-12T12:22:23.198Z,100066.16
2022-08-12T12:27:42.273Z,100060.38
2022-08-12T12:32:53.470Z,100064.97
2022-08-12T12:38:12.175Z,100055.28
2022-08-12T12:43:15.046Z,100064.94
2022-08-12T12:48:18.717Z,100063.56
2022-08-12T12:54:06.868Z,100062.13
2022-08-12T12:58:44.560Z,100042.22
2022-08-12T13:03:48.859Z,100046.88
2022-08-12T13:08:55.528Z,100037.66
2022-08-12T13:14:06.799Z,100023.72
2022-08-12T13:19:10.346Z,100026.06
2022-08-12T13:24:12.154Z,100016.19
2022-08-12T13:29:14.309Z,100011.50
2022-08-12T13:34:33.947Z,100003.03
2022-08-12T13:39:39.180Z,99996.66
2022-08-12T13:44:41.062Z,99988.31
2022-08-12T13:49:55.417Z,99998.06
2022-08-12T13:54:57.759Z,99995.09
2022-08-12T14:00:00.426Z,99983.97
2022-08-12T14:05:02.333Z,99991.19
2022-08-12T14:10:36.539Z,99988.88
2022-08-12T14:15:41.397Z,99972.81
2022-08-12T14:20:47.611Z,99960.47
2022-08-12T14:25:51.395Z,99963.56
2022-08-12T14:31:02.496Z,99964.59
2022-08-12T14:36:07.655Z,99968.75
2022-08-12T14:41:12.429Z,99964.28
2022-08-12T14:46:19.112Z,99960.47
2022-08-12T14:52:56.544Z,99945.69
2022-08-12T15:02:07.264Z,99957.59
2022-08-12T15:07:34.453Z,99940.16
2022-08-12T15:12:35.573Z,99925.28
2022-08-12T15:17:42.345Z,99934.69
2022-08-12T15:22:53.881Z,99924.50
2022-08-12T15:28:04.089Z,99923.59
2022-08-12T15:33:14.963Z,99922.50
2022-08-12T15:38:25.192Z,99914.69
2022-08-12T15:44:15.823Z,99938.28
2022-08-12T15:48:53.619Z,99932.72
2022-08-12T15:54:33.400Z,99923.44
2022-08-12T15:59:32.622Z,99919.41
2022-08-12T16:04:51.517Z,99926.28
2022-08-12T16:10:06.378Z,99916.56
2022-08-12T16:15:11.193Z,99925.00
2022-08-12T16:20:33.065Z,99919.94
2022-08-12T16:26:02.974Z,99919.16
2022-08-12T16:31:00.360Z,99916.31
2022-08-12T16:36:06.161Z,99918.19
2022-08-12T16:41:13.538Z,99919.34
2022-08-12T16:46:32.238Z,99907.22
2022-08-12T16:51:40.373Z,99909.97
2022-08-12T16:56:55.554Z,99905.84
2022-08-12T17:02:00.500Z,99895.94
2022-08-12T17:07:02.561Z,99892.63
2022-08-12T17:12:05.108Z,99892.66
2022-08-12T17:17:18.359Z,99884.09
2022-08-12T17:22:30.420Z,99892.91
2022-08-12T17:27:34.182Z,99879.41
2022-08-12T17:32:39.729Z,99878.00
2022-08-12T17:37:43.043Z,99874.13
2022-08-12T17:42:47.499Z,99889.31
2022-08-12T17:48:04.794Z,99891.50
2022-08-12T17:53:10.154Z,99887.63
2022-08-12T17:58:14.060Z,99895.25
2022-08-12T18:04:05.537Z,99900.44
2022-08-12T18:08:55.120Z,99907.50
2022-08-12T18:13:57.077Z,99915.16
2022-08-12T18:19:02.041Z,99915.19
2022-08-12T18:24:04.597Z,99914.53
2022-08-12T18:29:27.227Z,99921.75
2022-08-12T18:34:45.332Z,99934.00
2022-08-12T18:40:18.064Z,99929.44
2022-08-12T18:45:21.885Z,99940.84
2022-08-12T18:50:24.607Z,99941.97
2022-08-12T18:55:27.097Z,99949.03
2022-08-12T19:00:40.451Z,99947.94
2022-08-12T19:05:53.902Z,99943.97
2022-08-12T19:11:16.183Z,99956.00
2022-08-12T19:16:21.497Z,99950.50
2022-08-12T19:21:24.710Z,99960.16
2022-08-12T19:26:27.895Z,99966.13
2022-08-12T19:31:56.472Z,99971.25
2022-08-12T19:37:04.288Z,99972.16
2022-08-12T19:42:06.661Z,99966.47
2022-08-12T19:47:12.024Z,99970.34
2022-08-12T19:52:21.023Z,99965.28
2022-08-12T19:57:25.865Z,99964.59
2022-08-12T20:02:32.977Z,99961.66
2022-08-12T20:07:42.839Z,99971.47
2022-08-12T20:13:18.312Z,99974.06
2022-08-12T20:18:53.267Z,99975.72
2022-08-12T20:24:00.468Z,99972.84
2022-08-12T20:29:06.553Z,99975.41
2022-08-12T20:34:08.589Z,99975.22
2022-08-12T20:39:34.402Z,99974.72
2022-08-12T20:44:37.728Z,99974.16
2022-08-12T20:49:43.907Z,99978.34
2022-08-12T20:54:52.569Z,99982.41
2022-08-12T20:59:54.230Z,99983.06
2022-08-12T21:05:20.335Z,99986.66
2022-08-12T21:10:26.542Z,99991.47
2022-08-12T21:15:30.788Z,99991.56
2022-08-12T21:20:52.965Z,99981.09
2022-08-12T21:25:56.227Z,99980.47
2022-08-12T21:32:35.917Z,99973.66
2022-08-12T21:36:22.733Z,99978.97
2022-08-12T21:41:37.823Z,99986.66
2022-08-12T21:46:53.585Z,99986.66
2022-08-12T21:51:56.538Z,99985.66
2022-08-12T21:56:58.934Z,99991.13
2022-08-12T22:02:00.609Z,99998.69
2022-08-12T22:07:02.634Z,99991.22
2022-08-12T22:12:23.367Z,99998.97
2022-08-12T22:17:49.583Z,99998.78
2022-08-12T22:22:56.701Z,100006.50
2022-08-12T22:28:17.306Z,100013.94
2022-08-12T22:33:26.398Z,100007.63
2022-08-12T22:38:29.797Z,100007.25
2022-08-12T22:44:00.493Z,100004.53
2022-08-12T22:49:03.538Z,100002.84
2022-08-12T22:54:35.011Z,100008.72
2022-08-12T22:59:51.163Z,100007.25
2022-08-12T23:04:52.535Z,100006.59
2022-08-12T23:09:56.902Z,99998.69
2022-08-12T23:14:58.547Z,100003.28
2022-08-12T23:20:01.699Z,99996.56
2022-08-12T23:25:03.614Z,100003.06
2022-08-12T23:30:18.740Z,99998.22
2022-08-12T23:35:22.683Z,100001.34
2022-08-12T23:40:25.574Z,100000.31
2022-08-12T23:45:31.988Z,99992.94
2022-08-12T23:50:35.812Z,99987.41
2022-08-12T23:55:40.596Z,99989.31
